Baltic States ChampionshipLong Course (50m)
Riga (LAT)31 Mar - 1 Apr 2017
Women, 200m Breaststroke, Timed Final,  13 - 15 years
Women, 200m Breaststroke, Timed Final,  Open
Women, 200m Breaststroke, Timed Final,  13 - 15 years31 Mar 2017 - 12:51TimePts.
1.TETEREVKOVA, Kotryna2002LTULithuania2:42.33629
2.SISOJEVA, Arina2002LATLatvia2:46.20586
3.PRIIDEL, Melissa2002ESTEstonia2:46.56582
4.ARNDT, Meril2002ESTEstonia2:50.66541
5.KARECKAITE, Deidra2004LTULithuania2:50.91539
6.TAMMISTE, Sandra2003ESTEstonia2:52.57523
7.BIELSKUTE, Elze2002LTULithuania2:52.67522
8.KALVET, Laura2002ESTEstonia2:52.98520
9.LAGZDINA, Eliza2003LATLatvia2:53.41516
10.MOTIEJAITYTE, Mija2004LTULithuania2:56.75487
11.PUZAUSKAITE, Emilija2003LTULithuania3:00.44458
12.HAVI, Janely2002ESTEstonia3:04.15431
13.HALJASORG, Hanna2003ESTEstonia3:07.09411
14.SARANA, Smaragda-Luchia2004ESTEstonia3:12.15379
Women, 200m Breaststroke, Timed Final,  Open31 Mar 2017 - 12:35TimePts.
1.ROMANJUK, Maria1996ESTEstonia2:31.29777
2.SELEIKAITE, Agne2000LTULithuania2:42.65625
3.OVERLINGAITE, Goda1997LTULithuania2:44.22607
4.SORAKAITE, Agne1998LTULithuania2:44.59603
5.GIRCYTE, Ausrine2000LTULithuania2:50.35544
6.PAK, Heleene1999ESTEstonia2:50.67541
7.DOBRJANSKA, Jana2001LATLatvia2:50.91539
8.SIDOROVA, Nikola2001LATLatvia2:51.69531
9.MIHAILOVA, Anastasija2001LATLatvia2:52.39525
10.VINCLOVAITE, Gabija1999LTULithuania2:56.68488